Time;durP1;ratioP1;P1;durP2;ratioP2;P2;SDS_P1;SDS_P2;PMS_P1;PMS_P2;Temp;Humidity;BMP_temperature;BMP_pressure;BME280_temperature;BME280_humidity;BME280_pressure;Samples;Min_cycle;Max_cycle;Signal;HPM_P1;HPM_P2
2022/08/04 00:01:07;;;;;;;2.23;1.93;;;;;;;;;;5070562;28;20513;-68
2022/08/04 00:03:41;;;;;;;1.80;1.70;;;;;;;;;;5071358;28;20433;-69
2022/08/04 00:06:16;;;;;;;6.60;1.97;;;;;;;;;;5070570;28;20431;-68
2022/08/04 00:08:47;;;;;;;3.63;2.30;;;;;;;;;;5055731;28;20468;-67
2022/08/04 00:11:15;;;;;;;1.37;1.23;;;;;;;;;;5061870;28;20429;-70
2022/08/04 00:13:42;;;;;;;2.10;2.10;;;;;;;;;;5058726;28;20430;-68
2022/08/04 00:16:09;;;;;;;1.90;1.90;;;;;;;;;;5051202;28;20426;-68
2022/08/04 00:18:54;;;;;;;1.83;1.83;;;;;;;;;;5053522;28;20479;-68
2022/08/04 00:21:21;;;;;;;2.97;2.37;;;;;;;;;;5065045;28;20490;-68
2022/08/04 00:23:48;;;;;;;1.83;1.83;;;;;;;;;;5071468;28;20428;-68
2022/08/04 00:26:17;;;;;;;2.53;2.43;;;;;;;;;;5060894;28;20445;-68
2022/08/04 00:28:43;;;;;;;3.77;1.70;;;;;;;;;;5053394;28;20479;-68
2022/08/04 00:31:10;;;;;;;2.00;2.00;;;;;;;;;;5066111;28;20421;-67
2022/08/04 00:33:37;;;;;;;3.40;1.60;;;;;;;;;;5054217;28;20435;-68
2022/08/04 00:36:03;;;;;;;2.30;2.10;;;;;;;;;;5063041;28;20436;-68
2022/08/04 00:38:30;;;;;;;2.00;2.00;;;;;;;;;;5068519;28;20428;-68
2022/08/04 00:41:14;;;;;;;2.17;2.17;;;;;;;;;;5066996;28;20429;-68
2022/08/04 00:43:40;;;;;;;2.17;2.17;;;;;;;;;;5058897;28;20932;-70
2022/08/04 00:46:23;;;;;;;1.87;1.87;;;;;;;;;;5071297;28;20433;-70
2022/08/04 00:49:08;;;;;;;2.07;1.97;;;;;;;;;;5068873;28;20202;-69
2022/08/04 00:51:43;;;;;;;3.60;1.90;;;;;;;;;;5070903;28;20425;-70
2022/08/04 00:54:32;;;;;;;2.60;2.60;;;;;;;;;;5068571;28;20508;-68
2022/08/04 00:56:58;;;;;;;2.43;2.00;;;;;;;;;;5054965;28;20442;-69
2022/08/04 00:59:44;;;;;;;2.33;1.90;;;;;;;;;;5051969;28;20449;-67
2022/08/04 01:02:29;;;;;;;1.40;1.40;;;;;;;;;;5049527;28;20222;-67
2022/08/04 01:05:02;;;;;;;1.60;1.53;;;;;;;;;;5063492;28;20433;-68
2022/08/04 01:07:37;;;;;;;3.47;1.47;;;;;;;;;;5053541;28;20786;-69
2022/08/04 01:10:06;;;;;;;2.20;2.20;;;;;;;;;;5075025;28;20456;-68
2022/08/04 01:12:51;;;;;;;1.80;1.70;;;;;;;;;;5073822;28;20471;-68
2022/08/04 01:15:19;;;;;;;2.10;2.00;;;;;;;;;;5056460;28;20540;-68
2022/08/04 01:17:45;;;;;;;1.90;1.90;;;;;;;;;;5056278;28;20974;-68
2022/08/04 01:20:15;;;;;;;2.10;2.00;;;;;;;;;;5056444;28;20516;-68
2022/08/04 01:23:00;;;;;;;2.00;2.00;;;;;;;;;;5054573;28;20426;-68
2022/08/04 01:25:39;;;;;;;2.00;2.00;;;;;;;;;;5056389;28;20522;-68
2022/08/04 01:28:05;;;;;;;2.40;2.40;;;;;;;;;;5055334;28;20441;-68
2022/08/04 01:30:32;;;;;;;1.83;1.83;;;;;;;;;;5071246;28;20512;-68
2022/08/04 01:33:06;;;;;;;2.53;2.43;;;;;;;;;;5074253;28;20258;-68
2022/08/04 01:35:40;;;;;;;1.93;1.93;;;;;;;;;;5073152;28;20965;-69
2022/08/04 01:38:12;;;;;;;2.53;2.43;;;;;;;;;;5074451;28;20433;-70
2022/08/04 01:40:38;;;;;;;3.13;1.83;;;;;;;;;;5071444;28;20481;-70
2022/08/04 01:43:05;;;;;;;10.17;2.27;;;;;;;;;;5054571;28;20483;-68
2022/08/04 01:45:31;;;;;;;2.00;2.00;;;;;;;;;;5072575;28;20517;-68
2022/08/04 01:47:57;;;;;;;4.73;2.17;;;;;;;;;;5072991;28;20498;-68
2022/08/04 01:50:27;;;;;;;2.27;2.27;;;;;;;;;;5073326;28;20429;-68
2022/08/04 01:52:55;;;;;;;2.60;2.60;;;;;;;;;;5074096;28;20413;-67
2022/08/04 01:55:22;;;;;;;2.37;2.17;;;;;;;;;;5074302;28;20472;-68
2022/08/04 01:57:49;;;;;;;2.40;2.40;;;;;;;;;;5071877;28;20437;-67
2022/08/04 02:00:20;;;;;;;2.37;2.37;;;;;;;;;;5072556;28;20855;-69
2022/08/04 02:02:46;;;;;;;2.80;2.70;;;;;;;;;;5073785;28;20426;-69
2022/08/04 02:05:16;;;;;;;2.53;2.43;;;;;;;;;;5074192;28;20421;-69
2022/08/04 02:07:42;;;;;;;2.00;1.90;;;;;;;;;;5070776;28;20424;-68
2022/08/04 02:10:17;;;;;;;2.50;2.00;;;;;;;;;;5071555;28;20855;-69
2022/08/04 02:12:58;;;;;;;6.20;1.70;;;;;;;;;;5073778;28;20197;-68
2022/08/04 02:15:27;;;;;;;2.50;2.50;;;;;;;;;;5059045;28;21000;-69
2022/08/04 02:18:12;;;;;;;2.17;2.17;;;;;;;;;;5055352;28;20782;-68
2022/08/04 02:20:38;;;;;;;2.10;2.10;;;;;;;;;;5055309;28;20910;-69
2022/08/04 02:23:09;;;;;;;2.80;2.53;;;;;;;;;;5053444;28;20442;-68
2022/08/04 02:25:48;;;;;;;2.80;2.30;;;;;;;;;;5055397;28;20482;-67
2022/08/04 02:28:33;;;;;;;2.10;2.10;;;;;;;;;;5072710;28;20922;-68
2022/08/04 02:31:08;;;;;;;2.20;2.10;;;;;;;;;;5047298;28;20928;-68
2022/08/04 02:33:36;;;;;;;1.50;1.50;;;;;;;;;;5073305;28;20944;-69
2022/08/04 02:36:03;;;;;;;2.13;2.10;;;;;;;;;;5072156;28;20441;-67
2022/08/04 02:38:48;;;;;;;1.90;1.90;;;;;;;;;;5071661;28;20425;-67
2022/08/04 02:41:15;;;;;;;2.50;2.30;;;;;;;;;;5056246;28;20430;-68
2022/08/04 02:43:42;;;;;;;2.10;2.00;;;;;;;;;;5053451;28;20470;-69
2022/08/04 02:46:08;;;;;;;3.03;2.40;;;;;;;;;;5064200;28;20498;-69
2022/08/04 02:48:36;;;;;;;2.00;1.87;;;;;;;;;;5073293;28;20455;-68
2022/08/04 02:51:02;;;;;;;2.33;2.20;;;;;;;;;;5070274;28;20425;-69
2022/08/04 02:53:30;;;;;;;2.10;2.00;;;;;;;;;;5058871;28;20982;-68
2022/08/04 02:55:57;;;;;;;1.73;1.67;;;;;;;;;;5053534;28;20499;-69
2022/08/04 02:58:23;;;;;;;3.43;1.60;;;;;;;;;;5053478;28;20895;-68
2022/08/04 03:00:51;;;;;;;2.43;2.23;;;;;;;;;;5054573;28;20427;-68
2022/08/04 03:03:19;;;;;;;1.80;1.80;;;;;;;;;;5052969;28;20441;-68
2022/08/04 03:06:10;;;;;;;2.07;1.97;;;;;;;;;;5067859;28;20467;-71
2022/08/04 03:08:54;;;;;;;2.10;2.00;;;;;;;;;;5033161;28;20418;-70
2022/08/04 03:11:35;;;;;;;1.90;1.80;;;;;;;;;;5054212;28;20830;-70
2022/08/04 03:14:18;;;;;;;1.97;1.97;;;;;;;;;;5053262;28;20969;-71
2022/08/04 03:16:46;;;;;;;1.80;1.70;;;;;;;;;;5053218;28;20443;-71
2022/08/04 03:19:38;;;;;;;1.80;1.80;;;;;;;;;;5071899;28;22026;-68
2022/08/04 03:22:10;;;;;;;2.20;2.10;;;;;;;;;;5056032;28;20957;-71
2022/08/04 03:24:36;;;;;;;2.00;2.00;;;;;;;;;;5052755;28;20918;-70
2022/08/04 03:27:05;;;;;;;1.40;1.40;;;;;;;;;;5051762;28;20464;-70
2022/08/04 03:29:42;;;;;;;1.80;1.80;;;;;;;;;;5054139;28;20183;-70
2022/08/04 03:32:23;;;;;;;4.20;3.50;;;;;;;;;;5053598;28;20433;-68
2022/08/04 03:35:01;;;;;;;2.57;2.47;;;;;;;;;;5053903;28;20535;-70
2022/08/04 03:37:36;;;;;;;2.97;2.77;;;;;;;;;;5052611;28;20476;-70
2022/08/04 03:40:20;;;;;;;2.23;2.23;;;;;;;;;;5057973;28;20511;-69
2022/08/04 03:43:14;;;;;;;6.83;2.10;;;;;;;;;;5070923;28;20453;-71
2022/08/04 03:45:46;;;;;;;4.63;2.10;;;;;;;;;;5072277;28;20430;-68
2022/08/04 03:48:31;;;;;;;1.93;1.93;;;;;;;;;;5072565;28;20421;-69
2022/08/04 03:53:50;;;;;;;4.10;2.30;;;;;;;;;;5069728;28;20522;-69
2022/08/04 03:56:26;;;;;;;2.10;1.93;;;;;;;;;;5069069;28;20444;-69
2022/08/04 03:59:10;;;;;;;4.10;2.70;;;;;;;;;;5072602;28;20510;-71
2022/08/04 04:01:43;;;;;;;5.70;1.77;;;;;;;;;;5071899;28;21021;-71
2022/08/04 04:04:14;;;;;;;3.63;2.10;;;;;;;;;;5070903;28;20467;-70
2022/08/04 04:06:46;;;;;;;2.10;2.10;;;;;;;;;;5072311;28;20450;-70
2022/08/04 04:09:23;;;;;;;1.70;1.70;;;;;;;;;;5072007;28;20426;-68
2022/08/04 04:12:07;;;;;;;2.00;2.00;;;;;;;;;;5071977;28;20917;-68
2022/08/04 04:14:49;;;;;;;2.10;2.10;;;;;;;;;;5069564;28;20468;-68
2022/08/04 04:17:15;;;;;;;3.30;2.70;;;;;;;;;;5070149;28;20991;-70
2022/08/04 04:19:56;;;;;;;2.37;2.27;;;;;;;;;;5064461;28;20425;-71
2022/08/04 04:22:29;;;;;;;2.57;2.40;;;;;;;;;;5068993;28;20292;-69
2022/08/04 04:25:02;;;;;;;2.97;2.07;;;;;;;;;;5052435;28;20419;-70
2022/08/04 04:27:47;;;;;;;4.20;2.10;;;;;;;;;;5054690;28;20443;-70
2022/08/04 04:30:37;;;;;;;1.90;1.90;;;;;;;;;;5071721;28;20524;-68
2022/08/04 04:33:15;;;;;;;2.27;2.27;;;;;;;;;;5068296;28;20421;-70
2022/08/04 04:35:48;;;;;;;1.70;1.70;;;;;;;;;;5070564;28;20477;-71
2022/08/04 04:38:20;;;;;;;2.60;2.40;;;;;;;;;;5073757;28;20446;-68
2022/08/04 04:40:46;;;;;;;3.00;2.80;;;;;;;;;;5069449;28;20430;-68
2022/08/04 04:43:15;;;;;;;2.57;2.37;;;;;;;;;;5055659;28;20418;-69
2022/08/04 04:45:41;;;;;;;4.20;1.93;;;;;;;;;;5058949;28;20421;-69
2022/08/04 04:48:27;;;;;;;3.10;2.80;;;;;;;;;;5074141;28;20429;-70
2022/08/04 04:51:12;;;;;;;2.43;2.23;;;;;;;;;;5071761;28;20430;-67
2022/08/04 04:53:58;;;;;;;1.90;1.90;;;;;;;;;;5074651;28;20473;-71
2022/08/04 04:56:43;;;;;;;2.20;2.10;;;;;;;;;;5068721;28;20453;-69
2022/08/04 04:59:10;;;;;;;3.53;2.17;;;;;;;;;;5056855;28;20421;-70
2022/08/04 05:01:48;;;;;;;1.73;1.73;;;;;;;;;;5058516;28;20424;-68
2022/08/04 05:04:17;;;;;;;2.37;2.27;;;;;;;;;;5073986;28;20429;-70
2022/08/04 05:07:02;;;;;;;3.03;1.50;;;;;;;;;;5063007;28;20437;-68
2022/08/04 05:09:28;;;;;;;1.87;1.77;;;;;;;;;;5055628;28;20918;-68
2022/08/04 05:11:54;;;;;;;5.03;2.57;;;;;;;;;;5055256;28;20431;-68
2022/08/04 05:14:31;;;;;;;19.20;2.93;;;;;;;;;;5061496;28;20211;-69
2022/08/04 05:17:02;;;;;;;2.83;2.13;;;;;;;;;;5061327;28;21001;-70
2022/08/04 05:19:33;;;;;;;3.27;2.37;;;;;;;;;;5055476;28;20437;-68
2022/08/04 05:22:02;;;;;;;12.30;6.33;;;;;;;;;;5055640;28;20926;-70
2022/08/04 05:24:28;;;;;;;6.23;2.10;;;;;;;;;;5055393;28;20414;-70
2022/08/04 05:26:55;;;;;;;2.10;2.10;;;;;;;;;;5065645;28;20440;-68
2022/08/04 05:29:31;;;;;;;2.83;2.73;;;;;;;;;;5056369;28;20476;-71
2022/08/04 05:31:58;;;;;;;9.03;3.03;;;;;;;;;;5054551;28;20892;-68
2022/08/04 05:34:29;;;;;;;2.73;2.53;;;;;;;;;;5055066;28;20482;-68
2022/08/04 05:36:57;;;;;;;2.97;2.43;;;;;;;;;;5071358;28;20430;-68
2022/08/04 05:39:24;;;;;;;5.20;3.83;;;;;;;;;;5073930;28;20429;-69
2022/08/04 05:41:50;;;;;;;2.57;2.47;;;;;;;;;;5058464;28;20484;-70
2022/08/04 05:44:18;;;;;;;5.30;2.63;;;;;;;;;;5054952;28;20926;-69
2022/08/04 05:46:46;;;;;;;4.07;3.77;;;;;;;;;;5061271;28;20426;-69
2022/08/04 05:49:12;;;;;;;8.50;2.93;;;;;;;;;;5073181;28;20837;-69
2022/08/04 05:51:38;;;;;;;5.70;2.90;;;;;;;;;;5070771;28;20422;-70
2022/08/04 05:54:05;;;;;;;14.30;3.10;;;;;;;;;;5074566;28;20965;-69
2022/08/04 05:56:32;;;;;;;10.70;3.67;;;;;;;;;;5074614;28;20476;-71
2022/08/04 05:58:59;;;;;;;7.13;3.10;;;;;;;;;;5067225;28;20480;-71
2022/08/04 06:01:26;;;;;;;17.13;3.20;;;;;;;;;;5058372;28;20775;-69
2022/08/04 06:03:53;;;;;;;12.40;3.10;;;;;;;;;;5061118;28;20934;-69
2022/08/04 06:06:19;;;;;;;9.37;4.17;;;;;;;;;;5054349;28;20475;-70
2022/08/04 06:08:45;;;;;;;19.43;3.00;;;;;;;;;;5060918;28;20989;-71
2022/08/04 06:11:13;;;;;;;3.60;2.47;;;;;;;;;;5074535;28;20517;-79
2022/08/04 06:13:51;;;;;;;2.67;2.57;;;;;;;;;;5064537;28;20472;-78
2022/08/04 06:16:21;;;;;;;2.93;2.50;;;;;;;;;;5054343;28;20525;-73
2022/08/04 06:18:49;;;;;;;6.70;3.03;;;;;;;;;;5054302;28;20426;-74
2022/08/04 06:21:17;;;;;;;7.03;4.00;;;;;;;;;;5054276;28;20930;-73
2022/08/04 06:23:43;;;;;;;3.33;3.23;;;;;;;;;;5053520;28;20446;-76
2022/08/04 06:26:10;;;;;;;6.53;2.70;;;;;;;;;;5053670;28;20423;-75
2022/08/04 06:28:37;;;;;;;4.93;3.20;;;;;;;;;;5054189;28;20402;-75
2022/08/04 06:31:04;;;;;;;5.37;3.13;;;;;;;;;;5072602;28;20429;-76
2022/08/04 06:33:35;;;;;;;8.27;2.70;;;;;;;;;;5073734;28;20461;-76
2022/08/04 06:36:02;;;;;;;4.43;2.43;;;;;;;;;;5072171;28;20973;-75
2022/08/04 06:38:29;;;;;;;7.60;2.97;;;;;;;;;;5073560;28;20417;-74
2022/08/04 06:41:02;;;;;;;4.43;3.93;;;;;;;;;;5073853;28;20420;-76
2022/08/04 06:43:28;;;;;;;3.93;1.80;;;;;;;;;;5071759;28;20426;-73
2022/08/04 06:45:55;;;;;;;8.37;2.97;;;;;;;;;;5073945;28;20540;-73
2022/08/04 06:48:22;;;;;;;7.10;2.33;;;;;;;;;;5072551;28;20612;-73
2022/08/04 06:50:48;;;;;;;5.43;3.10;;;;;;;;;;5073803;28;20906;-73
2022/08/04 06:53:15;;;;;;;3.13;2.83;;;;;;;;;;5036067;28;20447;-74
2022/08/04 06:55:45;;;;;;;2.97;2.53;;;;;;;;;;5047991;28;20989;-77
2022/08/04 06:58:12;;;;;;;12.70;3.23;;;;;;;;;;5056615;28;20430;-75
2022/08/04 07:00:40;;;;;;;7.30;3.57;;;;;;;;;;5052202;28;20430;-74
2022/08/04 07:03:06;;;;;;;2.70;2.50;;;;;;;;;;5052941;28;20414;-77
2022/08/04 07:05:33;;;;;;;2.27;2.17;;;;;;;;;;5052672;28;20480;-74
2022/08/04 07:07:59;;;;;;;2.87;2.67;;;;;;;;;;5055873;28;20430;-73
2022/08/04 07:10:29;;;;;;;2.33;2.13;;;;;;;;;;5061219;28;20581;-74
2022/08/04 07:12:58;;;;;;;4.00;2.40;;;;;;;;;;5043685;28;20929;-80
2022/08/04 07:15:25;;;;;;;4.27;2.60;;;;;;;;;;5051379;28;20559;-72
2022/08/04 07:17:51;;;;;;;7.97;3.13;;;;;;;;;;5052973;28;20415;-73
2022/08/04 07:20:18;;;;;;;5.13;2.83;;;;;;;;;;5056071;28;20438;-73
2022/08/04 07:22:45;;;;;;;3.80;2.80;;;;;;;;;;5052205;28;20426;-74
2022/08/04 07:25:12;;;;;;;6.90;2.90;;;;;;;;;;5052515;28;20515;-71
2022/08/04 07:27:38;;;;;;;3.50;2.80;;;;;;;;;;5052453;28;20418;-70
2022/08/04 07:30:07;;;;;;;3.47;2.97;;;;;;;;;;5052886;28;20518;-71
2022/08/04 07:32:34;;;;;;;2.47;2.37;;;;;;;;;;5052166;28;20903;-71
2022/08/04 07:35:01;;;;;;;2.63;2.33;;;;;;;;;;5065019;28;20480;-71
2022/08/04 07:37:27;;;;;;;15.43;3.47;;;;;;;;;;5072082;28;20409;-73
2022/08/04 07:39:53;;;;;;;3.83;2.70;;;;;;;;;;5072234;28;20444;-72
2022/08/04 07:42:20;;;;;;;8.50;2.77;;;;;;;;;;5071571;28;20416;-71
2022/08/04 07:44:46;;;;;;;15.30;2.63;;;;;;;;;;5060393;28;20434;-71
2022/08/04 07:47:13;;;;;;;4.33;2.30;;;;;;;;;;5052910;28;20442;-71
2022/08/04 07:49:40;;;;;;;2.50;2.30;;;;;;;;;;5048304;28;20437;-72
2022/08/04 07:52:07;;;;;;;11.43;2.43;;;;;;;;;;5048596;28;20529;-70
2022/08/04 07:54:34;;;;;;;2.27;2.27;;;;;;;;;;5052163;28;20490;-71
2022/08/04 07:57:00;;;;;;;1.47;1.47;;;;;;;;;;5052043;28;20426;-71
2022/08/04 07:59:26;;;;;;;2.80;2.70;;;;;;;;;;5052591;28;20428;-71
2022/08/04 08:01:53;;;;;;;2.53;2.43;;;;;;;;;;5050224;28;20415;-72
2022/08/04 08:04:19;;;;;;;3.07;2.33;;;;;;;;;;5049735;28;21056;-72
2022/08/04 08:06:45;;;;;;;2.07;2.00;;;;;;;;;;5050698;28;20914;-74
2022/08/04 08:09:16;;;;;;;4.83;2.77;;;;;;;;;;5051856;28;20411;-73
2022/08/04 08:11:43;;;;;;;3.50;2.23;;;;;;;;;;5055154;28;20908;-69
2022/08/04 08:14:09;;;;;;;1.90;1.90;;;;;;;;;;5055434;28;20475;-71
2022/08/04 08:16:35;;;;;;;3.07;2.37;;;;;;;;;;5056686;28;20517;-72
2022/08/04 08:19:01;;;;;;;2.03;2.03;;;;;;;;;;5056536;28;20889;-72
2022/08/04 08:21:28;;;;;;;2.30;2.20;;;;;;;;;;5054891;28;20442;-74
2022/08/04 08:23:54;;;;;;;6.77;3.13;;;;;;;;;;5056260;28;20422;-72
2022/08/04 08:26:20;;;;;;;3.27;2.90;;;;;;;;;;5056569;28;20437;-74
2022/08/04 08:28:46;;;;;;;2.50;2.40;;;;;;;;;;5056525;28;20413;-72
2022/08/04 08:31:12;;;;;;;3.23;3.03;;;;;;;;;;5056284;28;20833;-74
2022/08/04 08:33:39;;;;;;;3.70;2.40;;;;;;;;;;5054763;28;20907;-69
2022/08/04 08:36:17;;;;;;;2.20;2.20;;;;;;;;;;5056172;28;20543;-71
2022/08/04 08:38:59;;;;;;;3.33;2.30;;;;;;;;;;5056221;28;20509;-72
2022/08/04 08:41:30;;;;;;;2.33;2.23;;;;;;;;;;5056272;28;20449;-74
2022/08/04 08:44:02;;;;;;;3.27;2.20;;;;;;;;;;5056145;28;20501;-73
2022/08/04 08:46:45;;;;;;;2.50;2.40;;;;;;;;;;5056051;28;20509;-72
2022/08/04 08:49:23;;;;;;;2.40;2.20;;;;;;;;;;5056150;28;20410;-72
2022/08/04 08:51:53;;;;;;;3.10;3.00;;;;;;;;;;5055280;28;20465;-69
2022/08/04 08:54:38;;;;;;;2.97;2.87;;;;;;;;;;5055498;28;20533;-69
2022/08/04 08:57:06;;;;;;;2.70;2.50;;;;;;;;;;5055964;28;20484;-71
2022/08/04 08:59:32;;;;;;;2.03;2.03;;;;;;;;;;5056032;28;20445;-74
2022/08/04 09:02:17;;;;;;;1.80;1.80;;;;;;;;;;5055320;28;20402;-73
2022/08/04 09:04:52;;;;;;;2.80;2.50;;;;;;;;;;5055861;28;20813;-71
2022/08/04 09:07:21;;;;;;;4.03;1.60;;;;;;;;;;5055408;28;20734;-73
2022/08/04 09:09:53;;;;;;;1.97;1.90;;;;;;;;;;5055720;28;20442;-72
2022/08/04 09:12:29;;;;;;;1.90;1.90;;;;;;;;;;5055317;28;20480;-73
2022/08/04 09:14:58;;;;;;;2.00;2.00;;;;;;;;;;5055590;28;20957;-71
2022/08/04 09:17:27;;;;;;;2.30;2.30;;;;;;;;;;5055519;28;20409;-74
2022/08/04 09:20:02;;;;;;;1.87;1.83;;;;;;;;;;5054258;28;20418;-70
2022/08/04 09:22:33;;;;;;;3.80;1.70;;;;;;;;;;5053898;28;20421;-69
2022/08/04 09:25:03;;;;;;;2.23;1.70;;;;;;;;;;5054206;28;20426;-72
2022/08/04 09:27:48;;;;;;;11.73;2.40;;;;;;;;;;5055418;28;20423;-74
2022/08/04 09:30:16;;;;;;;2.10;2.00;;;;;;;;;;5055270;28;20851;-73
2022/08/04 09:32:47;;;;;;;3.50;2.57;;;;;;;;;;5054892;28;20903;-73
2022/08/04 09:35:13;;;;;;;3.60;2.07;;;;;;;;;;5055134;28;20528;-73
2022/08/04 09:38:02;;;;;;;2.57;2.40;;;;;;;;;;5053216;28;20434;-70
2022/08/04 09:40:47;;;;;;;6.37;1.70;;;;;;;;;;5055216;28;20423;-71
2022/08/04 09:43:34;;;;;;;4.63;2.23;;;;;;;;;;5054593;28;20422;-72
2022/08/04 09:46:18;;;;;;;3.33;2.63;;;;;;;;;;5055081;28;20422;-74
2022/08/04 09:48:52;;;;;;;2.40;1.90;;;;;;;;;;5054942;28;20402;-72
2022/08/04 09:51:37;;;;;;;4.00;1.60;;;;;;;;;;5054607;28;20414;-73
2022/08/04 09:54:07;;;;;;;2.57;2.37;;;;;;;;;;5054518;28;20557;-73
2022/08/04 09:56:39;;;;;;;3.13;2.10;;;;;;;;;;5054734;28;20426;-73
2022/08/04 09:59:13;;;;;;;4.07;2.27;;;;;;;;;;5054793;28;20415;-73
2022/08/04 10:01:40;;;;;;;6.83;2.60;;;;;;;;;;5054271;28;20415;-72
2022/08/04 10:04:09;;;;;;;7.70;2.57;;;;;;;;;;5054788;28;20407;-74
2022/08/04 10:06:45;;;;;;;1.57;1.57;;;;;;;;;;5054237;28;20467;-73
2022/08/04 10:09:20;;;;;;;2.43;2.23;;;;;;;;;;5054561;28;20410;-73
2022/08/04 10:12:05;;;;;;;5.17;1.80;;;;;;;;;;5054247;28;20442;-73
2022/08/04 10:14:31;;;;;;;1.40;1.40;;;;;;;;;;5054330;28;20560;-74
2022/08/04 10:17:09;;;;;;;1.53;1.47;;;;;;;;;;5054276;28;20793;-72
2022/08/04 10:19:37;;;;;;;1.67;1.57;;;;;;;;;;5054462;28;20402;-74
2022/08/04 10:22:24;;;;;;;6.80;1.53;;;;;;;;;;5053663;28;20484;-74
2022/08/04 10:24:53;;;;;;;4.53;1.40;;;;;;;;;;5054227;28;20434;-74
2022/08/04 10:27:29;;;;;;;4.23;1.50;;;;;;;;;;5054217;28;20807;-72
2022/08/04 10:30:01;;;;;;;2.80;1.83;;;;;;;;;;5054354;28;20840;-74
2022/08/04 10:32:28;;;;;;;1.47;1.47;;;;;;;;;;5053840;28;20830;-74
2022/08/04 10:35:01;;;;;;;2.03;1.30;;;;;;;;;;5052999;28;20519;-73
2022/08/04 10:37:28;;;;;;;0.77;0.77;;;;;;;;;;5053775;28;20415;-74
2022/08/04 10:43:03;;;;;;;8.60;1.10;;;;;;;;;;5053897;28;20509;-73
2022/08/04 10:45:33;;;;;;;1.70;0.97;;;;;;;;;;5053891;28;20453;-71
2022/08/04 10:48:09;;;;;;;1.00;1.00;;;;;;;;;;5053858;28;20490;-73
2022/08/04 10:50:37;;;;;;;0.93;0.93;;;;;;;;;;5054929;28;20414;-73
2022/08/04 10:53:06;;;;;;;1.60;1.20;;;;;;;;;;5063405;28;20425;-76
2022/08/04 10:55:37;;;;;;;1.10;1.10;;;;;;;;;;5053074;28;20531;-74
2022/08/04 10:58:05;;;;;;;1.03;1.03;;;;;;;;;;5057650;28;20939;-74
2022/08/04 11:00:35;;;;;;;1.33;1.20;;;;;;;;;;5049476;28;20942;-77
2022/08/04 11:03:07;;;;;;;0.87;0.87;;;;;;;;;;5052165;28;20800;-75
2022/08/04 11:05:41;;;;;;;1.33;1.30;;;;;;;;;;5052245;28;20505;-74
2022/08/04 11:08:19;;;;;;;1.20;1.20;;;;;;;;;;5052476;28;20984;-78
2022/08/04 11:10:48;;;;;;;4.03;1.10;;;;;;;;;;5052497;28;21110;-73
2022/08/04 11:13:16;;;;;;;1.30;1.30;;;;;;;;;;5052972;28;20899;-75
2022/08/04 11:16:02;;;;;;;0.87;0.87;;;;;;;;;;5053167;28;20508;-75
2022/08/04 11:18:35;;;;;;;1.00;1.00;;;;;;;;;;5054122;28;20955;-76
2022/08/04 11:21:12;;;;;;;1.10;1.10;;;;;;;;;;5052989;28;20422;-79
2022/08/04 11:23:42;;;;;;;1.30;1.30;;;;;;;;;;5052950;28;20422;-79
2022/08/04 11:26:29;;;;;;;0.93;0.93;;;;;;;;;;5053198;28;20418;-77
2022/08/04 11:29:09;;;;;;;0.93;0.93;;;;;;;;;;5054339;28;20484;-79
2022/08/04 11:31:36;;;;;;;1.00;1.00;;;;;;;;;;5052618;28;20415;-76
2022/08/04 11:34:09;;;;;;;1.07;1.07;;;;;;;;;;5052566;28;20427;-75
2022/08/04 11:36:54;;;;;;;1.00;1.00;;;;;;;;;;5041098;28;20434;-79
2022/08/04 11:39:23;;;;;;;1.20;1.20;;;;;;;;;;5052824;28;20448;-83
2022/08/04 11:41:55;;;;;;;1.00;1.00;;;;;;;;;;5051818;28;20470;-80
2022/08/04 11:44:44;;;;;;;1.00;1.00;;;;;;;;;;5063908;28;20429;-77
2022/08/04 11:47:18;;;;;;;1.10;1.00;;;;;;;;;;5042517;28;20415;-83
2022/08/04 11:49:46;;;;;;;1.20;1.17;;;;;;;;;;5052893;28;20411;-83
2022/08/04 11:52:13;;;;;;;2.60;1.67;;;;;;;;;;5057061;28;20794;-81
2022/08/04 11:54:40;;;;;;;1.27;1.27;;;;;;;;;;5050748;28;20580;-78
2022/08/04 11:57:09;;;;;;;1.90;1.10;;;;;;;;;;5072287;28;20483;-78
2022/08/04 11:59:36;;;;;;;1.10;1.00;;;;;;;;;;5058070;28;20469;-80
2022/08/04 12:02:20;;;;;;;2.40;1.50;;;;;;;;;;5051766;28;20422;-78
2022/08/04 12:04:51;;;;;;;1.50;1.00;;;;;;;;;;5051007;28;20476;-79
2022/08/04 12:07:23;;;;;;;2.30;1.27;;;;;;;;;;5051945;28;20484;-82
2022/08/04 12:09:48;;;;;;;2.80;0.90;;;;;;;;;;5053075;28;20426;-77
2022/08/04 12:12:19;;;;;;;1.30;1.10;;;;;;;;;;5063018;28;20940;-78
2022/08/04 12:15:04;;;;;;;2.50;1.03;;;;;;;;;;5072356;28;20476;-79
2022/08/04 12:17:48;;;;;;;1.50;1.40;;;;;;;;;;5071952;28;20939;-81
2022/08/04 12:20:16;;;;;;;1.10;1.10;;;;;;;;;;5072019;28;20582;-78
2022/08/04 12:22:46;;;;;;;1.13;1.13;;;;;;;;;;5071546;28;20417;-80
2022/08/04 12:25:32;;;;;;;1.40;1.30;;;;;;;;;;5053119;28;20442;-81
2022/08/04 12:28:11;;;;;;;2.30;1.27;;;;;;;;;;5047341;28;20816;-76
2022/08/04 12:30:41;;;;;;;1.40;1.30;;;;;;;;;;5032228;28;20427;-81
2022/08/04 12:33:30;;;;;;;1.13;1.13;;;;;;;;;;5031764;28;20407;-80
2022/08/04 12:36:09;;;;;;;1.17;1.17;;;;;;;;;;5031629;28;20833;-82
2022/08/04 12:38:35;;;;;;;1.30;1.30;;;;;;;;;;5046488;28;20471;-79
2022/08/04 12:41:02;;;;;;;0.80;0.80;;;;;;;;;;5055056;28;20509;-81
2022/08/04 12:43:31;;;;;;;4.30;1.50;;;;;;;;;;5050267;28;20493;-78
2022/08/04 12:46:00;;;;;;;1.50;1.50;;;;;;;;;;5046161;28;20433;-81
2022/08/04 12:48:26;;;;;;;1.40;1.40;;;;;;;;;;5049315;28;20985;-76
2022/08/04 12:50:54;;;;;;;1.93;1.83;;;;;;;;;;5055760;28;20435;-76
2022/08/04 12:53:22;;;;;;;1.00;1.00;;;;;;;;;;5059957;28;20508;-79
2022/08/04 12:55:50;;;;;;;1.33;1.07;;;;;;;;;;5069497;28;20473;-77
2022/08/04 12:58:17;;;;;;;1.40;1.30;;;;;;;;;;5074112;28;20420;-79
2022/08/04 13:00:50;;;;;;;2.03;1.80;;;;;;;;;;5062403;28;20860;-78
2022/08/04 13:03:16;;;;;;;3.73;1.53;;;;;;;;;;5055509;28;20434;-79
2022/08/04 13:05:43;;;;;;;0.90;0.90;;;;;;;;;;5054948;28;20429;-76
2022/08/04 13:08:11;;;;;;;11.97;1.40;;;;;;;;;;5055469;28;20452;-74
2022/08/04 13:10:38;;;;;;;1.60;1.50;;;;;;;;;;5058262;28;20437;-77
2022/08/04 13:13:04;;;;;;;0.93;0.93;;;;;;;;;;5055609;28;20422;-76
2022/08/04 13:15:32;;;;;;;1.50;1.40;;;;;;;;;;5055030;28;20481;-78
2022/08/04 13:18:01;;;;;;;1.10;1.10;;;;;;;;;;5057450;28;20953;-81
2022/08/04 13:20:27;;;;;;;2.33;1.37;;;;;;;;;;5064426;28;20433;-75
2022/08/04 13:22:58;;;;;;;1.10;1.10;;;;;;;;;;5075048;28;20842;-79
2022/08/04 13:25:27;;;;;;;1.00;1.00;;;;;;;;;;5074910;28;20413;-78
2022/08/04 13:27:53;;;;;;;1.70;1.10;;;;;;;;;;5068353;28;20433;-78
2022/08/04 13:30:19;;;;;;;2.43;1.37;;;;;;;;;;5073082;28;20510;-82
2022/08/04 13:32:45;;;;;;;1.17;1.17;;;;;;;;;;5074148;28;20860;-83
2022/08/04 13:35:12;;;;;;;1.23;1.10;;;;;;;;;;5073149;28;20481;-77
2022/08/04 13:37:38;;;;;;;5.40;1.07;;;;;;;;;;5065277;28;20437;-82
2022/08/04 13:40:06;;;;;;;1.20;1.20;;;;;;;;;;5059730;28;20874;-82
2022/08/04 13:42:33;;;;;;;1.10;1.10;;;;;;;;;;5063229;28;20842;-81
2022/08/04 13:45:00;;;;;;;2.37;1.37;;;;;;;;;;5073541;28;20456;-83
2022/08/04 13:47:33;;;;;;;1.90;1.20;;;;;;;;;;5072779;28;20427;-80
2022/08/04 13:50:07;;;;;;;1.63;1.17;;;;;;;;;;5061958;28;20518;-80
2022/08/04 13:52:33;;;;;;;1.53;1.43;;;;;;;;;;5053491;28;20460;-81
2022/08/04 13:54:59;;;;;;;1.27;1.27;;;;;;;;;;5054279;28;20494;-80
2022/08/04 13:57:33;;;;;;;1.03;1.03;;;;;;;;;;5054167;28;20497;-80
2022/08/04 14:00:01;;;;;;;1.40;1.03;;;;;;;;;;5054286;28;20423;-80
2022/08/04 14:02:33;;;;;;;1.07;1.07;;;;;;;;;;5053856;28;20433;-80
2022/08/04 14:05:02;;;;;;;13.63;0.90;;;;;;;;;;5054428;28;20997;-81
2022/08/04 14:07:28;;;;;;;2.60;1.67;;;;;;;;;;5053669;28;20425;-82
2022/08/04 14:09:54;;;;;;;1.80;1.70;;;;;;;;;;5053921;28;20414;-76
2022/08/04 14:12:20;;;;;;;1.17;1.17;;;;;;;;;;5053608;28;20414;-76
2022/08/04 14:14:53;;;;;;;5.90;1.07;;;;;;;;;;5058062;28;20477;-77
2022/08/04 14:17:23;;;;;;;2.10;2.00;;;;;;;;;;5068057;28;20484;-78
2022/08/04 14:19:57;;;;;;;1.53;1.10;;;;;;;;;;5065551;28;20414;-74
2022/08/04 14:22:25;;;;;;;1.37;1.37;;;;;;;;;;5054145;28;20435;-78
2022/08/04 14:25:12;;;;;;;1.23;1.23;;;;;;;;;;5063193;28;20915;-79
2022/08/04 14:27:48;;;;;;;1.10;1.10;;;;;;;;;;5052502;28;20453;-74
2022/08/04 14:30:20;;;;;;;1.10;1.10;;;;;;;;;;5053598;28;20488;-80
2022/08/04 14:33:06;;;;;;;1.43;1.43;;;;;;;;;;5053467;28;20418;-76
2022/08/04 14:35:34;;;;;;;2.37;1.43;;;;;;;;;;5064364;28;20474;-77
2022/08/04 14:38:01;;;;;;;2.50;1.23;;;;;;;;;;5052262;28;20423;-76
2022/08/04 14:40:28;;;;;;;4.30;1.33;;;;;;;;;;5052045;28;20516;-77
2022/08/04 14:42:54;;;;;;;1.30;1.20;;;;;;;;;;5053261;28;20960;-74
2022/08/04 14:45:34;;;;;;;1.90;1.23;;;;;;;;;;5054486;28;20439;-76
2022/08/04 14:48:00;;;;;;;1.60;1.60;;;;;;;;;;5053617;28;20444;-75
2022/08/04 14:50:34;;;;;;;2.73;1.43;;;;;;;;;;5051682;28;20429;-75
2022/08/04 14:53:08;;;;;;;1.43;1.33;;;;;;;;;;5053449;28;20441;-77
2022/08/04 14:55:35;;;;;;;1.30;1.30;;;;;;;;;;5049592;28;20530;-76
2022/08/04 14:58:01;;;;;;;1.17;1.17;;;;;;;;;;5054287;28;20899;-78
2022/08/04 15:00:31;;;;;;;5.93;1.27;;;;;;;;;;5071178;28;20420;-79
2022/08/04 15:03:02;;;;;;;1.40;1.40;;;;;;;;;;5073130;28;20422;-81
2022/08/04 15:05:29;;;;;;;4.10;1.13;;;;;;;;;;5070911;28;20440;-76
2022/08/04 15:07:55;;;;;;;4.63;1.30;;;;;;;;;;5065902;28;20491;-76
2022/08/04 15:10:22;;;;;;;1.50;1.13;;;;;;;;;;5070047;28;20426;-78
2022/08/04 15:12:48;;;;;;;1.63;1.63;;;;;;;;;;5072581;28;20992;-78
2022/08/04 15:15:14;;;;;;;2.67;1.47;;;;;;;;;;5072033;28;20530;-78